Airfield :
LOGIN :

Register | Disclaimer

   EN    FR    IT 

 










Legend :    VFR   Marginal VFR   IFR   Intensive IFR   Very Intensive IFR
Visi :
Ceiling :
>= 8 km
>= 3000ft
5 to 8 km
1000 to 3000 ft
1500m to 5 km
500 to 1000 ft
800 to 1500m
200 to 500 ft
< 800m
< 200 ft
Symbols :   Thunderstorms  Fog  Heavy snow  Heavy precipitations  Wind > 20 kt
SIGMETs :     Misc.  Thunderstorms  Icing  Turbulence  Mountain Waves  Volcanic Ashes






- Airport Elevation : 75 ft
- IATA code : YEO


EGDY - RNAS Yeovilton

CURRENT METAR :
  • 271010Z 30017KT 9999 -SHRA FEW014 BKN030 12/10 Q1004 TEMPO 6000 -SHRA SCT022 RMK BLU TEMPO WHT

EXPIRED METARs :
  • 271000Z 29018KT 4000 SHRA BKN014 BKN020 13/10 Q1004 BECMG 9999 -SHRA BKN025 RMK GRN BECMG BLU
  • 270920Z 29019KT 9999 -SHRA FEW014 SCT030 BKN060 14/09 Q1004 TEMPO 9999 -SHRA SCT020 RMK BLU TEMPO WHT
  • 270850Z 28014KT 9999 FEW014 SCT030 BKN060 14/10 Q1004 TEMPO 9999 -SHRA SCT020 RMK BLU TEMPO WHT
  • 270820Z 25006KT 9999 FEW014 SCT026 12/10 Q1004 TEMPO 9999 -SHRA SCT020 RMK BLU TEMPO WHT
  • 270750Z 25005KT 9999 FEW014 SCT025 11/10 Q1004 TEMPO 9999 -SHRA SCT020 RMK BLU TEMPO WHT
  • 270720Z 24005KT 9999 -SHRA FEW014 SCT025 BKN050 11/09 Q1004 TEMPO 9999 -SHRA SCT020 RMK BLU TEMPO WHT

TAF TAF EGDY
Valid from the 27 at 09:00 until the 27 at 18:00 UTC


270758Z 2709/2718 31015G25KT 9999 SCT035
TEMPO 2709/2711 8000 -SHRA SCT020



MET'MAP, your aeronautical weather chart ! - Copyright ORBIFLY December 2007 - Disclaimer

ORBIFLY MET'MAP TEAM :

Programming & Development : Alexandra Zaïnal
Original concept : Baudouin d'Aumeries
Technical & hardware support : Manuel Goepfert
Assistance : Marc-Olivier Méhu




SOURCES & CREDITS :

   NOAA